createdAt,value
2019-04-30T00:02:00.125Z,14.07
2019-04-30T00:06:07.400Z,14.75
2019-04-30T00:10:15.373Z,12.70
2019-04-30T00:14:21.541Z,15.18
2019-04-30T00:18:26.442Z,15.05
2019-04-30T00:22:34.185Z,17.42
2019-04-30T00:26:39.840Z,18.37
2019-04-30T00:30:47.636Z,16.95
2019-04-30T00:34:52.021Z,17.52
2019-04-30T00:38:58.233Z,15.70
2019-04-30T00:43:05.259Z,15.03
2019-04-30T00:47:09.961Z,16.90
2019-04-30T00:51:20.978Z,17.98
2019-04-30T00:55:21.540Z,16.90
2019-04-30T00:59:28.858Z,19.77
2019-04-30T01:03:39.548Z,19.35
2019-04-30T01:07:50.124Z,21.50
2019-04-30T01:11:48.709Z,19.73
2019-04-30T01:15:54.979Z,26.48
2019-04-30T01:20:00.259Z,25.00
2019-04-30T01:24:05.489Z,19.95
2019-04-30T01:28:10.784Z,21.68
2019-04-30T01:32:19.685Z,24.52
2019-04-30T01:36:22.719Z,21.87
2019-04-30T01:40:28.554Z,21.50
2019-04-30T01:44:33.992Z,23.60
2019-04-30T01:48:39.375Z,22.13
2019-04-30T01:52:53.491Z,24.02
2019-04-30T01:57:15.548Z,21.95
2019-04-30T02:01:22.876Z,24.07
2019-04-30T02:05:28.756Z,25.05
2019-04-30T02:09:33.728Z,22.42
2019-04-30T02:13:43.409Z,23.42
2019-04-30T02:17:50.230Z,23.87
2019-04-30T02:21:54.912Z,23.40
2019-04-30T02:26:00.112Z,28.67
2019-04-30T02:30:05.629Z,27.13
2019-04-30T02:34:22.260Z,27.37
2019-04-30T02:38:32.972Z,28.87
2019-04-30T02:42:39.878Z,31.10
2019-04-30T02:46:46.484Z,34.08
2019-04-30T02:50:53.876Z,31.23
2019-04-30T02:55:00.817Z,35.73
2019-04-30T02:59:05.737Z,32.40
2019-04-30T03:03:10.632Z,41.15
2019-04-30T03:07:15.876Z,40.35
2019-04-30T03:11:21.066Z,29.87
2019-04-30T03:15:26.463Z,36.30
2019-04-30T03:19:37.531Z,32.40
2019-04-30T03:23:42.487Z,35.25
2019-04-30T03:27:49.693Z,30.15
2019-04-30T03:31:54.089Z,34.10
2019-04-30T03:36:02.315Z,38.25
2019-04-30T03:40:06.673Z,34.67
2019-04-30T03:44:21.814Z,36.23
2019-04-30T03:48:19.995Z,30.02
2019-04-30T03:52:24.809Z,37.42
2019-04-30T03:56:30.082Z,42.73
2019-04-30T04:00:55.015Z,31.15
2019-04-30T04:05:20.182Z,35.00
2019-04-30T04:09:35.812Z,35.08
2019-04-30T04:13:40.969Z,30.92
2019-04-30T04:17:45.956Z,34.25
2019-04-30T04:21:51.151Z,35.63
2019-04-30T04:25:59.446Z,37.42
2019-04-30T04:30:03.263Z,38.65
2019-04-30T04:34:09.322Z,37.75
2019-04-30T04:38:14.657Z,31.12
2019-04-30T04:42:19.839Z,39.60
2019-04-30T04:46:25.162Z,29.10
2019-04-30T04:50:30.555Z,29.95
2019-04-30T04:54:35.837Z,33.25
2019-04-30T04:58:42.765Z,32.05
2019-04-30T05:03:06.724Z,30.17
2019-04-30T05:07:11.865Z,32.80
2019-04-30T05:11:16.720Z,30.92
2019-04-30T05:15:22.084Z,28.17
2019-04-30T05:19:28.606Z,32.73
2019-04-30T05:23:33.614Z,27.42
2019-04-30T05:27:39.230Z,33.78
2019-04-30T05:31:44.471Z,31.82
2019-04-30T05:35:49.642Z,30.32
2019-04-30T05:39:54.829Z,29.98
2019-04-30T05:43:59.935Z,21.68
2019-04-30T05:48:05.334Z,25.85
2019-04-30T05:52:11.653Z,30.27
2019-04-30T05:56:16.781Z,32.25
2019-04-30T06:00:22.096Z,35.90
2019-04-30T06:04:29.313Z,25.72
2019-04-30T06:08:41.221Z,27.02
2019-04-30T06:17:10.111Z,26.70
2019-04-30T06:21:14.992Z,26.30
2019-04-30T06:25:28.356Z,30.95
2019-04-30T06:29:26.501Z,30.90
2019-04-30T06:33:32.026Z,28.70
2019-04-30T06:37:38.723Z,32.65
2019-04-30T06:41:43.840Z,27.40
2019-04-30T06:45:51.264Z,24.72
2019-04-30T06:49:55.958Z,27.22
2019-04-30T06:54:02.080Z,23.80
2019-04-30T06:58:14.216Z,24.23
2019-04-30T07:02:13.943Z,25.90
2019-04-30T07:06:29.130Z,21.40
2019-04-30T07:10:29.425Z,26.48
2019-04-30T07:14:34.787Z,20.57
2019-04-30T07:18:39.681Z,22.75
2019-04-30T07:22:49.669Z,20.95
2019-04-30T07:26:54.862Z,21.75
2019-04-30T07:31:10.674Z,22.60
2019-04-30T07:35:04.415Z,20.55
2019-04-30T07:39:10.095Z,19.10
2019-04-30T07:43:15.212Z,21.12
2019-04-30T07:47:20.395Z,16.65
2019-04-30T07:51:25.903Z,17.27
2019-04-30T07:55:31.466Z,17.50
2019-04-30T07:59:36.381Z,15.30
2019-04-30T08:03:58.864Z,17.07
2019-04-30T08:08:20.623Z,16.93
2019-04-30T08:12:10.870Z,15.68
2019-04-30T08:16:18.605Z,14.00
2019-04-30T08:20:25.161Z,16.25
2019-04-30T08:24:29.925Z,13.10
2019-04-30T08:28:34.891Z,13.98
2019-04-30T08:32:39.770Z,11.65
2019-04-30T08:36:44.653Z,12.55
2019-04-30T08:40:56.007Z,13.10
2019-04-30T08:44:56.284Z,9.83
2019-04-30T08:49:01.320Z,11.12
2019-04-30T08:53:06.561Z,9.88
2019-04-30T08:57:11.469Z,15.20
2019-04-30T09:01:17.250Z,9.78
2019-04-30T09:05:31.287Z,7.97
2019-04-30T09:09:36.191Z,10.40
2019-04-30T09:13:42.695Z,8.60
2019-04-30T09:17:58.939Z,8.23
2019-04-30T09:21:53.981Z,9.65
2019-04-30T09:25:58.951Z,8.13
2019-04-30T09:30:04.152Z,10.18
2019-04-30T09:34:17.449Z,12.60
2019-04-30T09:38:16.599Z,9.83
2019-04-30T09:42:21.430Z,9.00
2019-04-30T09:46:27.302Z,11.05
2019-04-30T09:50:34.515Z,10.32
2019-04-30T09:54:40.283Z,10.32
2019-04-30T09:58:45.514Z,12.93
2019-04-30T10:02:50.404Z,13.05
2019-04-30T10:06:55.300Z,13.30
2019-04-30T10:11:31.561Z,18.50
2019-04-30T10:15:43.720Z,16.73
2019-04-30T10:19:49.164Z,17.75
2019-04-30T10:23:54.376Z,16.90
2019-04-30T10:27:59.835Z,18.80
2019-04-30T10:32:05.276Z,22.98
2019-04-30T10:36:10.624Z,23.80
2019-04-30T10:40:20.084Z,24.15
2019-04-30T10:44:24.844Z,19.92
2019-04-30T10:48:31.936Z,20.95
2019-04-30T10:52:36.858Z,18.30
2019-04-30T10:56:41.693Z,21.48
2019-04-30T11:00:46.977Z,21.17
2019-04-30T11:04:51.897Z,23.32
2019-04-30T11:08:56.806Z,18.35
2019-04-30T11:13:01.831Z,16.73
2019-04-30T11:17:06.782Z,15.30
2019-04-30T11:21:12.099Z,13.03
2019-04-30T11:25:17.370Z,17.80
2019-04-30T11:29:23.853Z,16.52
2019-04-30T11:33:29.279Z,14.33
2019-04-30T11:37:34.482Z,16.42
2019-04-30T11:41:39.601Z,20.75
2019-04-30T11:46:20.523Z,22.40
2019-04-30T11:50:25.754Z,25.20
2019-04-30T11:54:30.587Z,21.87
2019-04-30T11:58:35.905Z,25.08
2019-04-30T12:02:43.945Z,27.62
2019-04-30T12:06:49.249Z,23.30
2019-04-30T12:11:00.711Z,23.95
2019-04-30T12:15:05.887Z,24.32
2019-04-30T12:19:10.817Z,22.35
2019-04-30T12:23:16.907Z,25.20
2019-04-30T12:27:21.752Z,26.75
2019-04-30T12:31:26.670Z,31.55
2019-04-30T12:35:31.510Z,23.32
2019-04-30T12:39:36.455Z,25.88
2019-04-30T12:43:41.489Z,24.75
2019-04-30T12:47:50.747Z,24.32
2019-04-30T12:52:03.881Z,23.80
2019-04-30T12:56:27.057Z,25.12
2019-04-30T13:00:31.260Z,25.48
2019-04-30T13:04:36.191Z,26.52
2019-04-30T13:08:42.702Z,28.65
2019-04-30T13:12:48.424Z,25.77
2019-04-30T13:16:53.854Z,24.40
2019-04-30T13:20:59.059Z,25.05
2019-04-30T13:25:06.598Z,27.48
2019-04-30T13:29:22.236Z,26.27
2019-04-30T13:33:36.148Z,24.52
2019-04-30T13:37:50.426Z,26.42
2019-04-30T13:42:00.488Z,24.77
2019-04-30T13:46:05.336Z,24.55
2019-04-30T13:50:10.948Z,22.40
2019-04-30T13:54:15.762Z,22.98
2019-04-30T13:58:20.517Z,20.72
2019-04-30T14:02:25.531Z,21.62
2019-04-30T14:06:32.001Z,22.80
2019-04-30T14:10:40.829Z,24.65
2019-04-30T14:14:45.732Z,19.48
2019-04-30T14:18:50.697Z,20.35
2019-04-30T14:22:57.535Z,23.40
2019-04-30T14:27:02.228Z,20.17
2019-04-30T14:31:07.215Z,22.95
2019-04-30T14:35:12.701Z,25.20
2019-04-30T14:39:19.680Z,20.15
2019-04-30T14:43:34.266Z,19.92
2019-04-30T14:47:50.048Z,20.32
2019-04-30T14:51:54.269Z,21.75
2019-04-30T14:56:21.248Z,25.48
2019-04-30T15:00:49.620Z,20.77
2019-04-30T15:04:54.545Z,24.15
2019-04-30T15:08:59.672Z,23.52
2019-04-30T15:13:05.753Z,25.97
2019-04-30T15:17:10.891Z,23.92
2019-04-30T15:21:15.960Z,22.17
2019-04-30T15:25:20.785Z,24.10
2019-04-30T15:29:25.678Z,21.27
2019-04-30T15:34:02.971Z,25.08
2019-04-30T15:38:05.531Z,23.52
2019-04-30T15:42:11.908Z,21.23
2019-04-30T15:46:17.063Z,23.10
2019-04-30T15:50:21.960Z,20.23
2019-04-30T15:54:26.748Z,22.90
2019-04-30T15:58:33.244Z,20.60
2019-04-30T16:02:56.974Z,20.00
2019-04-30T16:06:58.501Z,23.30
2019-04-30T16:11:29.492Z,21.77
2019-04-30T16:15:34.776Z,17.92
2019-04-30T16:19:39.675Z,20.52
2019-04-30T16:23:44.603Z,22.70
2019-04-30T16:27:49.532Z,19.87
2019-04-30T16:31:54.415Z,24.98
2019-04-30T16:35:59.331Z,26.87
2019-04-30T16:40:06.027Z,21.57
2019-04-30T16:44:10.930Z,18.10
2019-04-30T16:48:15.750Z,20.30
2019-04-30T16:52:20.494Z,21.20
2019-04-30T16:56:25.320Z,20.43
2019-04-30T17:00:31.504Z,20.55
2019-04-30T17:04:56.318Z,19.55
2019-04-30T17:09:08.112Z,21.55
2019-04-30T17:13:19.927Z,20.02
2019-04-30T17:17:25.641Z,22.62
2019-04-30T17:21:30.464Z,24.45
2019-04-30T17:25:35.285Z,14.65
2019-04-30T17:29:40.108Z,18.52
2019-04-30T17:33:44.933Z,18.87
2019-04-30T17:37:50.751Z,19.05
2019-04-30T17:41:55.596Z,20.20
2019-04-30T17:46:00.749Z,18.62
2019-04-30T17:50:08.911Z,19.77
2019-04-30T17:54:14.657Z,17.92
2019-04-30T17:58:20.615Z,18.42
2019-04-30T18:02:29.340Z,20.02
2019-04-30T18:06:34.464Z,20.90
2019-04-30T18:10:40.275Z,16.48
2019-04-30T18:14:45.437Z,20.60
2019-04-30T18:18:55.875Z,20.68
2019-04-30T18:23:21.116Z,23.07
2019-04-30T18:27:42.417Z,22.93
2019-04-30T18:31:36.496Z,21.85
2019-04-30T18:35:41.608Z,24.30
2019-04-30T18:39:46.447Z,21.07
2019-04-30T18:43:51.498Z,22.82
2019-04-30T18:47:56.812Z,21.45
2019-04-30T18:52:02.366Z,22.60
2019-04-30T18:56:12.179Z,26.42
2019-04-30T19:00:17.033Z,22.90
2019-04-30T19:04:22.223Z,24.15
2019-04-30T19:08:39.504Z,22.13
2019-04-30T19:13:04.760Z,24.00
2019-04-30T19:17:31.957Z,24.02
2019-04-30T19:21:40.177Z,25.17
2019-04-30T19:25:44.080Z,24.80
2019-04-30T19:29:51.578Z,24.32
2019-04-30T19:33:55.698Z,21.23
2019-04-30T19:38:00.632Z,23.22
2019-04-30T19:42:05.785Z,22.50
2019-04-30T19:46:10.960Z,22.50
2019-04-30T19:50:19.252Z,26.62
2019-04-30T19:54:24.495Z,20.97
2019-04-30T19:58:46.706Z,24.82
2019-04-30T20:02:36.009Z,23.07
2019-04-30T20:06:41.472Z,23.98
2019-04-30T20:10:46.207Z,21.60
2019-04-30T20:14:51.052Z,23.10
2019-04-30T20:18:55.909Z,26.48
2019-04-30T20:23:00.729Z,22.62
2019-04-30T20:27:08.004Z,22.37
2019-04-30T20:31:13.456Z,22.07
2019-04-30T20:35:18.475Z,24.05
2019-04-30T20:39:29.924Z,22.77
2019-04-30T20:43:34.830Z,23.37
2019-04-30T20:47:39.788Z,25.77
2019-04-30T20:51:53.537Z,20.85
2019-04-30T20:55:51.550Z,24.43
2019-04-30T20:59:56.396Z,23.65
2019-04-30T21:04:01.486Z,23.92
2019-04-30T21:08:06.395Z,23.30
2019-04-30T21:12:11.196Z,25.90
2019-04-30T21:16:16.397Z,26.75
2019-04-30T21:20:21.386Z,25.90
2019-04-30T21:24:26.379Z,24.63
2019-04-30T21:28:31.280Z,23.67
2019-04-30T21:33:13.428Z,26.27
2019-04-30T21:37:18.685Z,21.25
2019-04-30T21:41:23.519Z,27.65
2019-04-30T21:45:29.159Z,24.75
2019-04-30T21:49:36.383Z,25.20
2019-04-30T21:53:41.319Z,22.65
2019-04-30T21:57:46.138Z,22.45
2019-04-30T22:01:51.032Z,26.45
2019-04-30T22:05:56.256Z,26.70
2019-04-30T22:10:01.143Z,27.48
2019-04-30T22:14:06.718Z,22.77
2019-04-30T22:18:11.596Z,26.57
2019-04-30T22:22:16.418Z,24.52
2019-04-30T22:26:21.392Z,27.07
2019-04-30T22:30:26.321Z,27.95
2019-04-30T22:34:31.210Z,25.82
2019-04-30T22:38:40.497Z,27.22
2019-04-30T22:42:45.387Z,28.35
2019-04-30T22:46:51.092Z,25.55
2019-04-30T22:50:55.943Z,28.40
2019-04-30T22:55:01.068Z,28.73
2019-04-30T22:59:07.259Z,26.75
2019-04-30T23:03:15.114Z,28.07
2019-04-30T23:07:20.298Z,26.45
2019-04-30T23:11:25.488Z,29.55
2019-04-30T23:15:30.485Z,25.95
2019-04-30T23:19:35.366Z,26.12
2019-04-30T23:23:40.483Z,24.00
2019-04-30T23:27:45.408Z,27.77
2019-04-30T23:31:50.299Z,31.82
2019-04-30T23:35:55.145Z,29.85
2019-04-30T23:40:21.593Z,30.17
2019-04-30T23:44:26.396Z,25.32
2019-04-30T23:48:31.205Z,28.73
2019-04-30T23:52:35.944Z,31.93
2019-04-30T23:56:40.964Z,28.92
